createdAt,value
2022-08-25T00:02:04.711Z,8.43
2022-08-25T00:05:08.092Z,8.85
2022-08-25T00:08:12.310Z,8.68
2022-08-25T00:11:21.346Z,8.25
2022-08-25T00:14:28.472Z,8.73
2022-08-25T00:17:31.276Z,7.85
2022-08-25T00:20:33.782Z,8.52
2022-08-25T00:23:36.513Z,8.32
2022-08-25T00:26:42.435Z,8.23
2022-08-25T00:29:45.333Z,7.43
2022-08-25T00:32:50.510Z,8.32
2022-08-25T00:36:01.101Z,8.15
2022-08-25T00:39:04.979Z,7.18
2022-08-25T00:42:11.918Z,8.05
2022-08-25T00:45:18.897Z,8.45
2022-08-25T00:48:21.717Z,7.60
2022-08-25T00:51:38.946Z,7.68
2022-08-25T00:54:46.927Z,7.90
2022-08-25T00:58:00.360Z,7.43
2022-08-25T01:01:04.165Z,7.47
2022-08-25T01:04:07.672Z,8.07
2022-08-25T01:07:17.413Z,7.57
2022-08-25T01:10:22.761Z,7.95
2022-08-25T01:13:41.549Z,7.82
2022-08-25T01:16:44.803Z,7.68
2022-08-25T01:19:47.833Z,7.95
2022-08-25T01:22:55.075Z,7.57
2022-08-25T01:26:09.837Z,7.43
2022-08-25T01:29:21.346Z,7.78
2022-08-25T01:32:24.884Z,7.20
2022-08-25T01:35:27.337Z,7.80
2022-08-25T01:38:30.050Z,7.53
2022-08-25T01:42:05.490Z,8.00
2022-08-25T01:45:10.338Z,7.70
2022-08-25T01:48:14.340Z,7.45
2022-08-25T01:51:20.615Z,7.12
2022-08-25T01:54:23.461Z,8.00
2022-08-25T01:57:26.247Z,7.25
2022-08-25T02:00:28.860Z,7.45
2022-08-25T02:03:32.610Z,6.68
2022-08-25T02:06:35.301Z,7.12
2022-08-25T02:09:39.180Z,7.50
2022-08-25T02:12:41.822Z,7.60
2022-08-25T02:15:49.519Z,7.20
2022-08-25T02:18:53.117Z,7.05
2022-08-25T02:21:55.970Z,7.72
2022-08-25T02:24:59.190Z,7.00
2022-08-25T02:28:02.174Z,6.43
2022-08-25T02:31:05.809Z,6.78
2022-08-25T02:34:09.900Z,6.90
2022-08-25T02:37:12.887Z,7.65
2022-08-25T02:40:15.749Z,7.35
2022-08-25T02:43:18.243Z,6.75
2022-08-25T02:46:22.442Z,6.87
2022-08-25T02:49:25.036Z,6.82
2022-08-25T02:52:27.896Z,6.80
2022-08-25T02:55:30.415Z,7.20
2022-08-25T02:58:38.776Z,7.12
2022-08-25T03:01:41.446Z,7.32
2022-08-25T03:04:44.411Z,7.22
2022-08-25T03:07:46.937Z,7.70
2022-08-25T03:10:50.391Z,7.40
2022-08-25T03:13:56.379Z,8.15
2022-08-25T03:16:59.144Z,8.25
2022-08-25T03:20:01.673Z,7.65
2022-08-25T03:23:05.996Z,8.68
2022-08-25T03:26:27.579Z,7.97
2022-08-25T03:29:34.002Z,8.18
2022-08-25T03:32:37.425Z,8.77
2022-08-25T03:35:40.689Z,8.70
2022-08-25T03:38:43.363Z,7.62
2022-08-25T03:41:47.299Z,7.97
2022-08-25T03:44:49.711Z,7.90
2022-08-25T03:47:54.158Z,7.47
2022-08-25T03:50:56.718Z,8.32
2022-08-25T03:54:01.175Z,7.93
2022-08-25T03:57:04.095Z,7.62
2022-08-25T04:00:09.847Z,8.20
2022-08-25T04:03:14.111Z,8.18
2022-08-25T04:06:18.604Z,8.30
2022-08-25T04:09:21.760Z,8.13
2022-08-25T04:12:25.102Z,9.40
2022-08-25T04:15:30.284Z,9.05
2022-08-25T04:18:34.330Z,8.70
2022-08-25T04:21:38.969Z,9.82
2022-08-25T04:24:41.758Z,8.98
2022-08-25T04:27:44.333Z,9.32
2022-08-25T04:30:51.456Z,8.63
2022-08-25T04:33:54.990Z,9.23
2022-08-25T04:37:00.490Z,8.77
2022-08-25T04:40:03.964Z,9.50
2022-08-25T04:43:06.790Z,8.13
2022-08-25T04:46:12.736Z,7.87
2022-08-25T04:49:15.630Z,7.43
2022-08-25T04:52:18.098Z,6.97
2022-08-25T04:55:20.861Z,7.10
2022-08-25T04:58:23.497Z,7.07
2022-08-25T05:01:26.498Z,6.65
2022-08-25T05:04:29.732Z,7.07
2022-08-25T05:07:32.517Z,7.53
2022-08-25T05:10:39.894Z,7.00
2022-08-25T05:13:43.526Z,7.60
2022-08-25T05:16:49.622Z,7.55
2022-08-25T05:19:52.467Z,7.07
2022-08-25T05:22:54.939Z,7.65
2022-08-25T05:26:03.747Z,7.43
2022-08-25T05:29:06.926Z,6.75
2022-08-25T05:32:10.040Z,6.80
2022-08-25T05:35:12.900Z,7.03
2022-08-25T05:38:15.798Z,7.25
2022-08-25T05:41:26.521Z,7.05
2022-08-25T05:44:29.260Z,6.87
2022-08-25T05:47:34.116Z,6.82
2022-08-25T05:50:36.893Z,6.35
2022-08-25T05:53:42.254Z,6.40
2022-08-25T05:56:45.517Z,6.57
2022-08-25T05:59:47.986Z,6.70
2022-08-25T06:02:51.189Z,6.30
2022-08-25T06:05:54.121Z,5.90
2022-08-25T06:08:56.616Z,6.65
2022-08-25T06:11:59.472Z,5.62
2022-08-25T06:15:03.480Z,5.80
2022-08-25T06:18:07.305Z,5.97
2022-08-25T06:21:12.866Z,5.95
2022-08-25T06:24:15.962Z,5.90
2022-08-25T06:27:18.869Z,5.22
2022-08-25T06:30:28.575Z,5.05
2022-08-25T06:33:32.253Z,5.78
2022-08-25T06:36:35.046Z,5.37
2022-08-25T06:39:37.558Z,4.95
2022-08-25T06:42:41.195Z,4.93
2022-08-25T06:45:44.202Z,5.37
2022-08-25T06:48:47.992Z,4.93
2022-08-25T06:51:50.695Z,4.90
2022-08-25T06:54:54.648Z,4.22
2022-08-25T06:57:57.241Z,3.80
2022-08-25T07:01:15.912Z,4.37
2022-08-25T07:04:22.774Z,3.92
2022-08-25T07:07:25.628Z,4.15
2022-08-25T07:10:48.068Z,3.97
2022-08-25T07:13:51.327Z,3.90
2022-08-25T07:16:53.825Z,3.75
2022-08-25T07:19:57.466Z,4.03
2022-08-25T07:23:00.394Z,3.45
2022-08-25T07:26:36.359Z,3.70
2022-08-25T07:29:42.242Z,3.80
2022-08-25T07:32:45.825Z,4.00
2022-08-25T07:35:48.416Z,3.85
2022-08-25T07:38:53.063Z,3.67
2022-08-25T07:41:58.420Z,3.65
2022-08-25T07:45:01.200Z,3.20
2022-08-25T07:48:12.076Z,3.53
2022-08-25T07:51:17.542Z,3.67
2022-08-25T07:54:20.592Z,3.62
2022-08-25T07:57:26.576Z,4.43
2022-08-25T08:00:30.933Z,3.50
2022-08-25T08:03:50.067Z,3.25
2022-08-25T08:06:53.779Z,3.45
2022-08-25T08:10:32.930Z,3.65
2022-08-25T08:13:20.069Z,3.50
2022-08-25T08:16:27.264Z,2.95
2022-08-25T08:19:29.916Z,3.22
2022-08-25T08:22:32.995Z,3.45
2022-08-25T08:25:35.492Z,3.47
2022-08-25T08:28:38.284Z,2.80
2022-08-25T08:31:40.896Z,3.37
2022-08-25T08:34:51.506Z,2.83
2022-08-25T08:37:54.298Z,2.50
2022-08-25T08:41:30.523Z,3.22
2022-08-25T08:44:45.317Z,2.78
2022-08-25T08:47:52.626Z,3.35
2022-08-25T08:51:15.113Z,2.65
2022-08-25T08:54:24.184Z,2.80
2022-08-25T08:57:29.067Z,2.90
2022-08-25T09:00:37.053Z,2.37
2022-08-25T09:03:44.350Z,2.12
2022-08-25T09:06:50.781Z,2.45
2022-08-25T09:09:54.068Z,2.72
2022-08-25T09:13:12.793Z,2.67
2022-08-25T09:16:54.888Z,2.78
2022-08-25T09:20:18.671Z,2.75
2022-08-25T09:23:33.961Z,2.50
2022-08-25T09:26:49.399Z,2.55
2022-08-25T09:30:01.892Z,2.05
2022-08-25T09:33:08.795Z,2.25
2022-08-25T09:36:11.603Z,2.55
2022-08-25T09:39:14.922Z,2.42
2022-08-25T09:42:23.919Z,2.40
2022-08-25T09:45:42.465Z,2.30
2022-08-25T09:48:55.564Z,2.17
2022-08-25T09:52:28.748Z,2.30
2022-08-25T09:55:34.466Z,2.20
2022-08-25T09:58:38.779Z,2.05
2022-08-25T10:02:06.391Z,2.53
2022-08-25T10:05:23.262Z,2.50
2022-08-25T10:08:30.361Z,2.20
2022-08-25T10:11:33.377Z,2.00
2022-08-25T10:14:44.588Z,2.50
2022-08-25T10:17:47.635Z,2.42
2022-08-25T10:21:07.515Z,2.35
2022-08-25T10:24:12.591Z,2.53
2022-08-25T10:27:52.699Z,2.55
2022-08-25T10:31:27.071Z,2.70
2022-08-25T10:34:55.470Z,2.45
2022-08-25T10:38:34.794Z,3.03
2022-08-25T10:41:44.800Z,2.45
2022-08-25T10:45:43.263Z,2.35
2022-08-25T10:49:08.234Z,2.05
2022-08-25T10:52:57.921Z,2.12
2022-08-25T10:56:12.658Z,2.00
2022-08-25T10:59:41.651Z,2.22
2022-08-25T11:02:58.588Z,2.33
2022-08-25T11:06:17.781Z,2.00
2022-08-25T11:09:25.667Z,2.10
2022-08-25T11:12:39.126Z,2.60
2022-08-25T11:16:15.538Z,2.15
2022-08-25T11:19:31.245Z,2.53
2022-08-25T11:22:42.687Z,2.30
2022-08-25T11:25:52.410Z,2.20
2022-08-25T11:29:18.635Z,2.37
2022-08-25T11:32:24.838Z,2.30
2022-08-25T11:35:39.134Z,2.87
2022-08-25T11:38:51.345Z,2.45
2022-08-25T11:42:19.145Z,2.50
2022-08-25T11:45:30.889Z,1.92
2022-08-25T11:48:56.253Z,2.37
2022-08-25T11:52:02.844Z,2.50
2022-08-25T11:55:23.381Z,2.47
2022-08-25T11:58:50.175Z,3.08
2022-08-25T12:01:55.730Z,2.45
2022-08-25T12:04:59.044Z,2.17
2022-08-25T12:08:26.296Z,2.65
2022-08-25T12:11:38.464Z,2.12
2022-08-25T12:14:46.377Z,2.50
2022-08-25T12:18:16.501Z,2.62
2022-08-25T12:21:32.611Z,2.75
2022-08-25T12:24:48.221Z,2.62
2022-08-25T12:27:59.978Z,1.83
2022-08-25T12:31:17.806Z,2.62
2022-08-25T12:37:30.027Z,2.20
2022-08-25T12:40:38.239Z,1.90
2022-08-25T12:43:44.863Z,2.40
2022-08-25T12:46:47.475Z,2.67
2022-08-25T12:49:53.811Z,2.45
2022-08-25T12:53:08.674Z,2.05
2022-08-25T12:56:32.448Z,2.30
2022-08-25T12:59:48.626Z,2.20
2022-08-25T13:03:34.093Z,3.00
2022-08-25T13:06:55.776Z,2.65
2022-08-25T13:10:35.060Z,2.33
2022-08-25T13:13:46.505Z,2.42
2022-08-25T13:16:58.536Z,2.70
2022-08-25T13:20:15.193Z,2.50
2022-08-25T13:23:25.103Z,2.42
2022-08-25T13:26:48.352Z,2.20
2022-08-25T13:29:58.330Z,2.55
2022-08-25T13:33:22.363Z,2.67
2022-08-25T13:36:51.877Z,2.33
2022-08-25T13:40:12.081Z,2.20
2022-08-25T13:43:18.153Z,2.25
2022-08-25T13:46:31.874Z,2.40
2022-08-25T13:49:39.819Z,2.17
2022-08-25T13:53:04.808Z,2.85
2022-08-25T13:56:23.956Z,2.72
2022-08-25T13:59:40.462Z,2.42
2022-08-25T14:02:52.109Z,2.78
2022-08-25T14:06:08.770Z,2.17
2022-08-25T14:09:18.423Z,2.70
2022-08-25T14:12:42.293Z,2.40
2022-08-25T14:15:47.966Z,2.40
2022-08-25T14:18:54.777Z,2.37
2022-08-25T14:22:03.054Z,2.60
2022-08-25T14:25:07.398Z,2.22
2022-08-25T14:28:16.168Z,2.90
2022-08-25T14:31:32.141Z,2.30
2022-08-25T14:34:37.197Z,2.67
2022-08-25T14:37:40.095Z,2.25
2022-08-25T14:40:43.854Z,2.40
2022-08-25T14:43:47.498Z,3.10
2022-08-25T14:46:54.977Z,2.80
2022-08-25T14:49:58.328Z,2.45
2022-08-25T14:53:01.919Z,2.92
2022-08-25T14:56:08.570Z,2.97
2022-08-25T14:59:13.479Z,3.00
2022-08-25T15:02:20.266Z,2.92
2022-08-25T15:05:29.082Z,2.67
2022-08-25T15:08:51.477Z,3.40
2022-08-25T15:11:56.723Z,2.72
2022-08-25T15:15:01.863Z,2.95
2022-08-25T15:18:06.276Z,3.03
2022-08-25T15:21:09.480Z,3.17
2022-08-25T15:24:17.556Z,3.00
2022-08-25T15:27:21.833Z,3.20
2022-08-25T15:30:31.007Z,3.05
2022-08-25T15:33:34.102Z,2.75
2022-08-25T15:36:37.142Z,2.58
2022-08-25T15:39:43.339Z,2.37
2022-08-25T15:42:47.109Z,2.90
2022-08-25T15:45:50.901Z,2.50
2022-08-25T15:48:53.555Z,2.35
2022-08-25T15:51:56.525Z,3.00
2022-08-25T15:55:00.266Z,3.60
2022-08-25T15:58:03.182Z,2.80
2022-08-25T16:01:06.604Z,2.80
2022-08-25T16:04:12.708Z,3.08
2022-08-25T16:07:15.371Z,3.00
2022-08-25T16:10:18.288Z,2.80
2022-08-25T16:13:20.897Z,3.10
2022-08-25T16:16:27.152Z,3.22
2022-08-25T16:19:33.041Z,2.85
2022-08-25T16:22:35.886Z,2.85
2022-08-25T16:25:42.731Z,2.90
2022-08-25T16:28:49.917Z,3.30
2022-08-25T16:31:53.387Z,2.85
2022-08-25T16:34:58.462Z,2.53
2022-08-25T16:38:03.844Z,2.95
2022-08-25T16:41:11.285Z,2.90
2022-08-25T16:44:14.567Z,3.03
2022-08-25T16:47:17.839Z,2.50
2022-08-25T16:50:22.792Z,3.05
2022-08-25T16:53:45.089Z,2.78
2022-08-25T16:56:53.702Z,2.85
2022-08-25T16:59:58.901Z,3.15
2022-08-25T17:03:04.881Z,3.40
2022-08-25T17:06:07.835Z,3.75
2022-08-25T17:09:13.824Z,3.00
2022-08-25T17:12:26.442Z,3.03
2022-08-25T17:15:29.017Z,3.40
2022-08-25T17:18:32.032Z,2.60
2022-08-25T17:21:37.714Z,3.12
2022-08-25T17:24:42.485Z,3.33
2022-08-25T17:27:45.188Z,2.75
2022-08-25T17:30:48.548Z,2.97
2022-08-25T17:33:52.279Z,2.95
2022-08-25T17:36:55.731Z,3.15
2022-08-25T17:40:03.003Z,2.95
2022-08-25T17:43:09.232Z,3.10
2022-08-25T17:46:13.577Z,3.08
2022-08-25T17:49:17.930Z,3.42
2022-08-25T17:52:25.002Z,3.22
2022-08-25T17:55:28.508Z,3.70
2022-08-25T17:58:33.189Z,3.00
2022-08-25T18:01:40.783Z,3.28
2022-08-25T18:04:45.417Z,4.15
2022-08-25T18:07:48.061Z,3.17
2022-08-25T18:10:53.065Z,3.50
2022-08-25T18:13:55.995Z,3.33
2022-08-25T18:17:00.179Z,3.03
2022-08-25T18:20:06.262Z,3.50
2022-08-25T18:23:09.766Z,3.87
2022-08-25T18:26:13.153Z,3.20
2022-08-25T18:29:16.686Z,2.97
2022-08-25T18:32:20.612Z,3.10
2022-08-25T18:35:29.040Z,3.50
2022-08-25T18:38:50.289Z,3.33
2022-08-25T18:42:01.766Z,3.37
2022-08-25T18:45:06.147Z,3.20
2022-08-25T18:48:10.958Z,4.25
2022-08-25T18:51:14.693Z,3.28
2022-08-25T18:54:23.062Z,3.45
2022-08-25T18:57:26.846Z,3.15
2022-08-25T19:00:32.905Z,3.70
2022-08-25T19:03:35.307Z,3.30
2022-08-25T19:06:38.127Z,3.05
2022-08-25T19:09:40.652Z,3.45
2022-08-25T19:12:43.434Z,3.65
2022-08-25T19:15:46.891Z,3.30
2022-08-25T19:18:52.186Z,3.85
2022-08-25T19:21:55.035Z,3.50
2022-08-25T19:24:58.491Z,3.50
2022-08-25T19:28:01.081Z,3.30
2022-08-25T19:31:06.390Z,4.03
2022-08-25T19:34:13.681Z,3.35
2022-08-25T19:37:21.830Z,3.08
2022-08-25T19:40:26.981Z,3.08
2022-08-25T19:43:31.490Z,3.25
2022-08-25T19:46:46.897Z,3.12
2022-08-25T19:49:55.216Z,3.20
2022-08-25T19:52:58.004Z,3.42
2022-08-25T19:56:01.727Z,3.33
2022-08-25T19:59:04.589Z,3.30
2022-08-25T20:02:10.840Z,3.90
2022-08-25T20:05:14.192Z,3.53
2022-08-25T20:08:18.997Z,3.28
2022-08-25T20:11:33.392Z,3.55
2022-08-25T20:14:36.598Z,3.62
2022-08-25T20:17:43.326Z,3.60
2022-08-25T20:20:47.650Z,3.55
2022-08-25T20:24:10.077Z,3.30
2022-08-25T20:27:12.844Z,3.58
2022-08-25T20:30:22.404Z,3.80
2022-08-25T20:33:24.970Z,4.12
2022-08-25T20:36:28.157Z,3.55
2022-08-25T20:39:30.793Z,3.78
2022-08-25T20:42:33.676Z,3.55
2022-08-25T20:45:36.265Z,3.60
2022-08-25T20:48:39.339Z,3.53
2022-08-25T20:51:42.503Z,3.53
2022-08-25T20:54:46.935Z,3.30
2022-08-25T20:57:51.981Z,3.67
2022-08-25T21:00:54.925Z,3.60
2022-08-25T21:03:57.380Z,3.28
2022-08-25T21:07:01.087Z,3.87
2022-08-25T21:10:10.496Z,3.20
2022-08-25T21:13:17.100Z,3.35
2022-08-25T21:16:21.172Z,3.67
2022-08-25T21:19:29.988Z,3.33
2022-08-25T21:22:35.287Z,3.60
2022-08-25T21:25:42.257Z,4.57
2022-08-25T21:28:47.484Z,4.60
2022-08-25T21:31:51.095Z,3.60
2022-08-25T21:34:54.522Z,3.78
2022-08-25T21:37:57.750Z,4.00
2022-08-25T21:41:00.610Z,3.65
2022-08-25T21:44:03.822Z,3.67
2022-08-25T21:47:07.035Z,3.72
2022-08-25T21:50:11.916Z,4.18
2022-08-25T21:53:14.424Z,3.80
2022-08-25T21:56:22.413Z,3.83
2022-08-25T21:59:31.958Z,4.15
2022-08-25T22:02:34.777Z,3.80
2022-08-25T22:05:37.622Z,3.90
2022-08-25T22:08:41.693Z,4.40
2022-08-25T22:11:45.499Z,5.47
2022-08-25T22:14:48.138Z,4.30
2022-08-25T22:17:50.909Z,4.32
2022-08-25T22:20:54.520Z,3.97
2022-08-25T22:24:00.289Z,4.35
2022-08-25T22:27:02.842Z,3.95
2022-08-25T22:30:06.450Z,4.20
2022-08-25T22:33:09.537Z,4.30
2022-08-25T22:36:16.408Z,4.45
2022-08-25T22:39:19.134Z,4.40
2022-08-25T22:42:25.664Z,4.28
2022-08-25T22:45:28.420Z,5.22
2022-08-25T22:48:31.459Z,4.57
2022-08-25T22:51:34.177Z,4.10
2022-08-25T22:54:37.021Z,4.12
2022-08-25T22:57:40.706Z,5.03
2022-08-25T23:00:43.952Z,4.40
2022-08-25T23:03:47.696Z,4.53
2022-08-25T23:06:53.761Z,5.15
2022-08-25T23:10:03.125Z,4.25
2022-08-25T23:13:08.894Z,4.33
2022-08-25T23:16:14.269Z,4.97
2022-08-25T23:19:18.026Z,4.25
2022-08-25T23:22:21.059Z,4.30
2022-08-25T23:25:24.605Z,4.93
2022-08-25T23:28:27.230Z,4.65
2022-08-25T23:31:30.445Z,4.57
2022-08-25T23:34:38.220Z,4.55
2022-08-25T23:40:47.873Z,5.32
2022-08-25T23:43:52.413Z,4.97
2022-08-25T23:46:55.408Z,4.10
2022-08-25T23:50:00.769Z,4.72
2022-08-25T23:53:03.560Z,4.87
2022-08-25T23:56:06.480Z,4.45
2022-08-25T23:59:09.386Z,4.82
